sensor_id;sensor_type;location;lat;lon;timestamp;pressure;altitude;pressure_sealevel;temperature;humidity
8366;BME280;4220;42.502;24.188;2023-04-28T00:02:20;95333.13;;;7.34;56.09
8366;BME280;4220;42.502;24.188;2023-04-28T00:04:47;95371.59;;;7.56;55.86
8366;BME280;4220;42.502;24.188;2023-04-28T00:07:14;95382.97;;;7.56;55.78
8366;BME280;4220;42.502;24.188;2023-04-28T00:09:41;95377.69;;;7.56;56.39
8366;BME280;4220;42.502;24.188;2023-04-28T00:12:09;95322.69;;;7.19;55.36
8366;BME280;4220;42.502;24.188;2023-04-28T00:14:36;95390.25;;;7.54;55.25
8366;BME280;4220;42.502;24.188;2023-04-28T00:17:03;95394.72;;;7.54;56.92
8366;BME280;4220;42.502;24.188;2023-04-28T00:19:30;95401.22;;;7.51;57.93
8366;BME280;4220;42.502;24.188;2023-04-28T00:21:56;95403.88;;;7.58;58.75
8366;BME280;4220;42.502;24.188;2023-04-28T00:24:23;95389.69;;;7.65;58.63
8366;BME280;4220;42.502;24.188;2023-04-28T00:26:50;95406.63;;;7.84;58.19
8366;BME280;4220;42.502;24.188;2023-04-28T00:29:18;95393.84;;;7.81;57.87
8366;BME280;4220;42.502;24.188;2023-04-28T00:31:45;95408.72;;;7.95;58.05
8366;BME280;4220;42.502;24.188;2023-04-28T00:34:12;95402.41;;;7.96;57.11
8366;BME280;4220;42.502;24.188;2023-04-28T00:36:39;95404.28;;;8.09;57.45
8366;BME280;4220;42.502;24.188;2023-04-28T00:39:06;95399.44;;;8.12;56.39
8366;BME280;4220;42.502;24.188;2023-04-28T00:41:34;95405.72;;;8.11;56.14
8366;BME280;4220;42.502;24.188;2023-04-28T00:44:01;95393.13;;;8.07;56.17
8366;BME280;4220;42.502;24.188;2023-04-28T00:46:29;95408.59;;;8.16;57.00
8366;BME280;4220;42.502;24.188;2023-04-28T00:48:57;95402.31;;;8.17;56.44
8366;BME280;4220;42.502;24.188;2023-04-28T00:51:24;95390.50;;;8.13;56.07
8366;BME280;4220;42.502;24.188;2023-04-28T00:53:52;95403.91;;;8.12;56.82
8366;BME280;4220;42.502;24.188;2023-04-28T00:56:19;95406.38;;;8.13;56.85
8366;BME280;4220;42.502;24.188;2023-04-28T00:58:46;95376.44;;;8.06;57.22
8366;BME280;4220;42.502;24.188;2023-04-28T01:01:13;95396.78;;;8.06;57.38
8366;BME280;4220;42.502;24.188;2023-04-28T01:03:41;95363.97;;;7.80;57.82
8366;BME280;4220;42.502;24.188;2023-04-28T01:06:08;95389.84;;;7.98;57.62
8366;BME280;4220;42.502;24.188;2023-04-28T01:08:37;95395.75;;;8.00;57.70
8366;BME280;4220;42.502;24.188;2023-04-28T01:11:04;95389.63;;;7.93;58.03
8366;BME280;4220;42.502;24.188;2023-04-28T01:13:31;95387.81;;;8.00;57.94
8366;BME280;4220;42.502;24.188;2023-04-28T01:15:58;95387.81;;;8.00;58.41
8366;BME280;4220;42.502;24.188;2023-04-28T01:18:25;95390.91;;;8.10;58.63
8366;BME280;4220;42.502;24.188;2023-04-28T01:20:53;95385.56;;;7.97;58.43
8366;BME280;4220;42.502;24.188;2023-04-28T01:23:20;95390.44;;;7.94;57.99
8366;BME280;4220;42.502;24.188;2023-04-28T01:25:48;95350.72;;;7.67;57.90
8366;BME280;4220;42.502;24.188;2023-04-28T01:28:15;95393.88;;;7.94;58.27
8366;BME280;4220;42.502;24.188;2023-04-28T01:30:42;95388.41;;;7.96;58.68
8366;BME280;4220;42.502;24.188;2023-04-28T01:33:09;95379.38;;;7.77;57.80
8366;BME280;4220;42.502;24.188;2023-04-28T01:35:36;95355.19;;;7.67;57.82
8366;BME280;4220;42.502;24.188;2023-04-28T01:38:02;95377.31;;;7.66;58.13
8366;BME280;4220;42.502;24.188;2023-04-28T01:40:29;95374.06;;;7.64;58.69
8366;BME280;4220;42.502;24.188;2023-04-28T01:42:58;95387.56;;;7.41;59.38
8366;BME280;4220;42.502;24.188;2023-04-28T01:45:25;95381.44;;;7.06;61.16
8366;BME280;4220;42.502;24.188;2023-04-28T01:47:52;95376.31;;;6.98;62.57
8366;BME280;4220;42.502;24.188;2023-04-28T01:50:19;95374.53;;;7.05;63.11
8366;BME280;4220;42.502;24.188;2023-04-28T01:52:45;95372.81;;;6.91;63.10
8366;BME280;4220;42.502;24.188;2023-04-28T01:55:12;95358.03;;;6.69;62.62
8366;BME280;4220;42.502;24.188;2023-04-28T01:57:39;95366.72;;;6.42;64.37
8366;BME280;4220;42.502;24.188;2023-04-28T02:00:08;95376.63;;;6.40;65.11
8366;BME280;4220;42.502;24.188;2023-04-28T02:02:35;95383.66;;;6.33;66.84
8366;BME280;4220;42.502;24.188;2023-04-28T02:05:02;95365.72;;;6.22;67.60
8366;BME280;4220;42.502;24.188;2023-04-28T02:07:29;95376.66;;;6.19;68.92
8366;BME280;4220;42.502;24.188;2023-04-28T02:09:56;95379.91;;;6.21;69.78
8366;BME280;4220;42.502;24.188;2023-04-28T02:12:22;95379.34;;;6.04;71.32
8366;BME280;4220;42.502;24.188;2023-04-28T02:14:49;95387.28;;;5.89;71.87
8366;BME280;4220;42.502;24.188;2023-04-28T02:17:18;95390.72;;;5.61;73.95
8366;BME280;4220;42.502;24.188;2023-04-28T02:19:44;95381.94;;;5.39;76.03
8366;BME280;4220;42.502;24.188;2023-04-28T02:22:11;95392.94;;;5.28;77.66
8366;BME280;4220;42.502;24.188;2023-04-28T02:24:38;95386.09;;;5.19;79.53
8366;BME280;4220;42.502;24.188;2023-04-28T02:27:05;95347.41;;;4.98;80.60
8366;BME280;4220;42.502;24.188;2023-04-28T02:29:32;95390.38;;;5.20;81.29
8366;BME280;4220;42.502;24.188;2023-04-28T02:31:58;95398.91;;;5.22;80.91
8366;BME280;4220;42.502;24.188;2023-04-28T02:34:27;95393.00;;;5.20;79.67
8366;BME280;4220;42.502;24.188;2023-04-28T02:36:54;95392.19;;;5.34;79.00
8366;BME280;4220;42.502;24.188;2023-04-28T02:39:20;95396.00;;;5.32;77.95
8366;BME280;4220;42.502;24.188;2023-04-28T02:41:51;95390.56;;;5.33;77.43
8366;BME280;4220;42.502;24.188;2023-04-28T02:44:19;95391.91;;;5.14;79.22
8366;BME280;4220;42.502;24.188;2023-04-28T02:46:46;95383.13;;;5.07;79.79
8366;BME280;4220;42.502;24.188;2023-04-28T02:49:12;95389.84;;;5.10;78.84
8366;BME280;4220;42.502;24.188;2023-04-28T02:51:41;95387.19;;;5.10;79.35
8366;BME280;4220;42.502;24.188;2023-04-28T02:54:07;95402.78;;;5.26;78.68
8366;BME280;4220;42.502;24.188;2023-04-28T02:56:34;95415.16;;;5.40;78.79
8366;BME280;4220;42.502;24.188;2023-04-28T02:59:01;95416.19;;;5.60;77.48
8366;BME280;4220;42.502;24.188;2023-04-28T03:01:28;95421.47;;;5.60;76.23
8366;BME280;4220;42.502;24.188;2023-04-28T03:03:55;95395.09;;;5.39;76.71
8366;BME280;4220;42.502;24.188;2023-04-28T03:06:22;95420.84;;;5.58;76.34
8366;BME280;4220;42.502;24.188;2023-04-28T03:08:50;95416.13;;;5.39;76.90
8366;BME280;4220;42.502;24.188;2023-04-28T03:11:17;95418.47;;;5.19;78.28
8366;BME280;4220;42.502;24.188;2023-04-28T03:13:43;95418.56;;;5.11;78.70
8366;BME280;4220;42.502;24.188;2023-04-28T03:16:11;95423.38;;;5.08;79.42
8366;BME280;4220;42.502;24.188;2023-04-28T03:18:38;95412.94;;;5.00;79.56
8366;BME280;4220;42.502;24.188;2023-04-28T03:21:04;95421.91;;;5.05;80.08
8366;BME280;4220;42.502;24.188;2023-04-28T03:23:31;95432.31;;;4.99;81.23
8366;BME280;4220;42.502;24.188;2023-04-28T03:26:00;95435.31;;;4.96;81.19
8366;BME280;4220;42.502;24.188;2023-04-28T03:28:26;95428.00;;;4.69;83.61
8366;BME280;4220;42.502;24.188;2023-04-28T03:30:53;95433.59;;;4.66;84.64
8366;BME280;4220;42.502;24.188;2023-04-28T03:33:20;95440.44;;;4.52;86.18
8366;BME280;4220;42.502;24.188;2023-04-28T03:35:47;95435.06;;;4.45;87.04
8366;BME280;4220;42.502;24.188;2023-04-28T03:38:14;95440.16;;;4.47;87.86
8366;BME280;4220;42.502;24.188;2023-04-28T03:40:40;95423.09;;;4.43;87.50
8366;BME280;4220;42.502;24.188;2023-04-28T03:43:09;95447.16;;;4.54;87.48
8366;BME280;4220;42.502;24.188;2023-04-28T03:45:35;95453.97;;;4.63;86.84
8366;BME280;4220;42.502;24.188;2023-04-28T03:48:02;95441.25;;;4.52;87.62
8366;BME280;4220;42.502;24.188;2023-04-28T03:50:29;95462.31;;;4.67;86.79
8366;BME280;4220;42.502;24.188;2023-04-28T03:52:57;95468.34;;;4.76;87.30
8366;BME280;4220;42.502;24.188;2023-04-28T03:55:23;95483.09;;;4.77;87.21
8366;BME280;4220;42.502;24.188;2023-04-28T03:57:51;95460.84;;;4.64;86.99
8366;BME280;4220;42.502;24.188;2023-04-28T04:00:19;95483.03;;;4.85;86.57
8366;BME280;4220;42.502;24.188;2023-04-28T04:02:46;95483.59;;;4.95;85.37
8366;BME280;4220;42.502;24.188;2023-04-28T04:05:13;95491.03;;;4.91;84.97
8366;BME280;4220;42.502;24.188;2023-04-28T04:07:40;95498.94;;;4.91;85.47
8366;BME280;4220;42.502;24.188;2023-04-28T04:10:08;95504.19;;;4.91;85.44
8366;BME280;4220;42.502;24.188;2023-04-28T04:12:34;95465.59;;;4.69;85.45
8366;BME280;4220;42.502;24.188;2023-04-28T04:15:01;95509.50;;;5.06;84.02
8366;BME280;4220;42.502;24.188;2023-04-28T04:17:30;95501.59;;;5.06;84.41
8366;BME280;4220;42.502;24.188;2023-04-28T04:19:56;95514.31;;;5.17;83.49
8366;BME280;4220;42.502;24.188;2023-04-28T04:22:23;95503.59;;;5.18;82.16
8366;BME280;4220;42.502;24.188;2023-04-28T04:24:50;95504.81;;;5.16;82.00
8366;BME280;4220;42.502;24.188;2023-04-28T04:27:17;95512.06;;;5.28;81.31
8366;BME280;4220;42.502;24.188;2023-04-28T04:29:44;95513.06;;;5.27;81.96
8366;BME280;4220;42.502;24.188;2023-04-28T04:32:11;95515.78;;;5.34;80.61
8366;BME280;4220;42.502;24.188;2023-04-28T04:34:39;95509.16;;;5.38;81.24
8366;BME280;4220;42.502;24.188;2023-04-28T04:37:07;95520.91;;;5.36;81.91
8366;BME280;4220;42.502;24.188;2023-04-28T04:39:34;95521.06;;;5.49;81.58
8366;BME280;4220;42.502;24.188;2023-04-28T04:42:01;95520.47;;;5.61;79.97
8366;BME280;4220;42.502;24.188;2023-04-28T04:44:28;95525.00;;;5.67;80.10
8366;BME280;4220;42.502;24.188;2023-04-28T04:46:55;95525.19;;;5.80;78.51
8366;BME280;4220;42.502;24.188;2023-04-28T04:49:22;95534.72;;;5.81;77.28
8366;BME280;4220;42.502;24.188;2023-04-28T04:51:50;95533.06;;;5.80;77.24
8366;BME280;4220;42.502;24.188;2023-04-28T04:54:17;95541.13;;;5.87;77.76
8366;BME280;4220;42.502;24.188;2023-04-28T04:56:44;95529.84;;;5.93;77.42
8366;BME280;4220;42.502;24.188;2023-04-28T04:59:11;95540.72;;;6.05;75.61
8366;BME280;4220;42.502;24.188;2023-04-28T05:01:37;95542.91;;;6.16;75.68
8366;BME280;4220;42.502;24.188;2023-04-28T05:04:04;95541.19;;;6.23;75.28
8366;BME280;4220;42.502;24.188;2023-04-28T05:06:31;95554.88;;;6.33;75.26
8366;BME280;4220;42.502;24.188;2023-04-28T05:09:00;95551.88;;;6.36;75.12
8366;BME280;4220;42.502;24.188;2023-04-28T05:11:27;95558.03;;;6.43;74.91
8366;BME280;4220;42.502;24.188;2023-04-28T05:13:53;95545.13;;;6.48;73.29
8366;BME280;4220;42.502;24.188;2023-04-28T05:16:20;95557.28;;;6.49;72.68
8366;BME280;4220;42.502;24.188;2023-04-28T05:18:47;95544.78;;;6.51;72.94
8366;BME280;4220;42.502;24.188;2023-04-28T05:21:14;95551.81;;;6.65;71.67
8366;BME280;4220;42.502;24.188;2023-04-28T05:23:41;95547.06;;;6.75;72.59
8366;BME280;4220;42.502;24.188;2023-04-28T05:26:09;95562.00;;;6.89;71.54
8366;BME280;4220;42.502;24.188;2023-04-28T05:28:37;95539.69;;;6.85;72.13
8366;BME280;4220;42.502;24.188;2023-04-28T05:31:04;95553.66;;;6.86;71.18
8366;BME280;4220;42.502;24.188;2023-04-28T05:33:31;95531.75;;;6.85;70.58
8366;BME280;4220;42.502;24.188;2023-04-28T05:35:58;95557.13;;;7.07;69.98
8366;BME280;4220;42.502;24.188;2023-04-28T05:38:25;95551.59;;;7.23;68.38
8366;BME280;4220;42.502;24.188;2023-04-28T05:40:52;95548.44;;;7.35;69.50
8366;BME280;4220;42.502;24.188;2023-04-28T05:43:21;95548.59;;;7.54;67.10
8366;BME280;4220;42.502;24.188;2023-04-28T05:45:47;95548.13;;;7.72;65.47
8366;BME280;4220;42.502;24.188;2023-04-28T05:48:14;95538.00;;;7.75;64.38
8366;BME280;4220;42.502;24.188;2023-04-28T05:50:41;95551.19;;;8.03;63.18
8366;BME280;4220;42.502;24.188;2023-04-28T05:53:08;95541.72;;;8.15;62.62
8366;BME280;4220;42.502;24.188;2023-04-28T05:55:35;95530.91;;;8.10;62.85
8366;BME280;4220;42.502;24.188;2023-04-28T05:58:02;95552.19;;;8.36;61.72
8366;BME280;4220;42.502;24.188;2023-04-28T06:00:30;95556.59;;;8.64;59.64
8366;BME280;4220;42.502;24.188;2023-04-28T06:02:57;95569.66;;;8.72;57.79
8366;BME280;4220;42.502;24.188;2023-04-28T06:05:24;95558.25;;;8.78;57.92
8366;BME280;4220;42.502;24.188;2023-04-28T06:07:51;95569.06;;;8.83;58.11
8366;BME280;4220;42.502;24.188;2023-04-28T06:10:18;95559.06;;;8.78;58.09
8366;BME280;4220;42.502;24.188;2023-04-28T06:12:45;95569.88;;;8.90;58.32
8366;BME280;4220;42.502;24.188;2023-04-28T06:15:12;95569.88;;;8.90;57.74
8366;BME280;4220;42.502;24.188;2023-04-28T06:17:40;95550.75;;;8.81;57.39
8366;BME280;4220;42.502;24.188;2023-04-28T06:20:08;95517.75;;;8.71;58.40
8366;BME280;4220;42.502;24.188;2023-04-28T06:22:38;95558.97;;;9.06;57.48
8366;BME280;4220;42.502;24.188;2023-04-28T06:25:05;95579.09;;;9.07;56.71
8366;BME280;4220;42.502;24.188;2023-04-28T06:27:32;95557.75;;;9.08;58.87
8366;BME280;4220;42.502;24.188;2023-04-28T06:29:59;95574.22;;;9.17;58.79
8366;BME280;4220;42.502;24.188;2023-04-28T06:32:26;95564.47;;;9.11;58.79
8366;BME280;4220;42.502;24.188;2023-04-28T06:34:54;95587.69;;;9.15;59.17
8366;BME280;4220;42.502;24.188;2023-04-28T06:37:21;95536.75;;;9.00;58.49
8366;BME280;4220;42.502;24.188;2023-04-28T06:39:47;95566.13;;;9.18;58.84
8366;BME280;4220;42.502;24.188;2023-04-28T06:42:14;95578.34;;;9.33;58.11
8366;BME280;4220;42.502;24.188;2023-04-28T06:44:43;95572.66;;;9.49;58.22
8366;BME280;4220;42.502;24.188;2023-04-28T06:47:10;95574.28;;;9.56;57.68
8366;BME280;4220;42.502;24.188;2023-04-28T06:49:37;95572.03;;;9.53;57.32
8366;BME280;4220;42.502;24.188;2023-04-28T06:52:05;95578.56;;;9.57;57.21
8366;BME280;4220;42.502;24.188;2023-04-28T06:54:33;95572.25;;;9.65;56.49
8366;BME280;4220;42.502;24.188;2023-04-28T06:57:00;95578.75;;;9.75;56.14
8366;BME280;4220;42.502;24.188;2023-04-28T06:59:27;95570.00;;;9.88;56.81
8366;BME280;4220;42.502;24.188;2023-04-28T07:01:54;95592.63;;;9.84;55.93
8366;BME280;4220;42.502;24.188;2023-04-28T07:04:23;95575.53;;;9.80;56.91
8366;BME280;4220;42.502;24.188;2023-04-28T07:06:50;95575.28;;;9.88;56.60
8366;BME280;4220;42.502;24.188;2023-04-28T07:09:19;95599.38;;;9.80;56.00
8366;BME280;4220;42.502;24.188;2023-04-28T07:11:45;95579.56;;;9.96;56.32
8366;BME280;4220;42.502;24.188;2023-04-28T07:14:12;95570.59;;;10.03;55.85
8366;BME280;4220;42.502;24.188;2023-04-28T07:16:39;95565.69;;;10.20;56.33
8366;BME280;4220;42.502;24.188;2023-04-28T07:19:06;95582.56;;;10.45;55.37
8366;BME280;4220;42.502;24.188;2023-04-28T07:21:33;95585.81;;;10.54;55.75
8366;BME280;4220;42.502;24.188;2023-04-28T07:24:00;95569.47;;;10.57;54.99
8366;BME280;4220;42.502;24.188;2023-04-28T07:26:28;95579.44;;;10.68;54.53
8366;BME280;4220;42.502;24.188;2023-04-28T07:28:55;95570.47;;;10.62;54.87
8366;BME280;4220;42.502;24.188;2023-04-28T07:31:22;95566.75;;;10.76;53.43
8366;BME280;4220;42.502;24.188;2023-04-28T07:33:49;95573.63;;;10.90;54.03
8366;BME280;4220;42.502;24.188;2023-04-28T07:36:16;95570.31;;;11.01;53.47
8366;BME280;4220;42.502;24.188;2023-04-28T07:38:42;95576.84;;;11.05;52.84
8366;BME280;4220;42.502;24.188;2023-04-28T07:41:09;95514.72;;;10.75;53.29
8366;BME280;4220;42.502;24.188;2023-04-28T07:43:38;95557.38;;;11.11;52.37
8366;BME280;4220;42.502;24.188;2023-04-28T07:46:05;95566.94;;;11.19;52.42
8366;BME280;4220;42.502;24.188;2023-04-28T07:48:32;95555.84;;;11.29;53.52
8366;BME280;4220;42.502;24.188;2023-04-28T07:50:59;95558.19;;;11.50;52.31
8366;BME280;4220;42.502;24.188;2023-04-28T07:53:26;95560.66;;;11.45;51.38
8366;BME280;4220;42.502;24.188;2023-04-28T07:55:54;95554.91;;;11.48;50.88
8366;BME280;4220;42.502;24.188;2023-04-28T07:58:20;95561.75;;;11.62;50.56
8366;BME280;4220;42.502;24.188;2023-04-28T08:00:49;95563.00;;;11.59;50.70
8366;BME280;4220;42.502;24.188;2023-04-28T08:03:15;95562.88;;;11.48;50.17
8366;BME280;4220;42.502;24.188;2023-04-28T08:05:42;95550.28;;;11.37;50.27
8366;BME280;4220;42.502;24.188;2023-04-28T08:08:10;95560.59;;;11.51;49.70
8366;BME280;4220;42.502;24.188;2023-04-28T08:10:36;95559.47;;;11.65;49.86
8366;BME280;4220;42.502;24.188;2023-04-28T08:13:05;95556.78;;;11.97;48.97
8366;BME280;4220;42.502;24.188;2023-04-28T08:15:32;95526.53;;;11.98;48.96
8366;BME280;4220;42.502;24.188;2023-04-28T08:18:01;95528.41;;;12.15;46.85
8366;BME280;4220;42.502;24.188;2023-04-28T08:20:28;95561.94;;;12.34;47.77
8366;BME280;4220;42.502;24.188;2023-04-28T08:22:57;95560.09;;;12.53;48.09
8366;BME280;4220;42.502;24.188;2023-04-28T08:25:23;95522.34;;;12.63;46.96
8366;BME280;4220;42.502;24.188;2023-04-28T08:27:50;95542.66;;;13.05;45.48
8366;BME280;4220;42.502;24.188;2023-04-28T08:30:18;95505.75;;;13.27;45.38
8366;BME280;4220;42.502;24.188;2023-04-28T08:32:45;95532.56;;;13.55;49.03
8366;BME280;4220;42.502;24.188;2023-04-28T08:35:14;95532.47;;;13.73;48.45
8366;BME280;4220;42.502;24.188;2023-04-28T08:37:41;95551.72;;;13.63;43.46
8366;BME280;4220;42.502;24.188;2023-04-28T08:40:08;95512.94;;;13.49;45.24
8366;BME280;4220;42.502;24.188;2023-04-28T08:42:35;95530.97;;;13.89;45.90
8366;BME280;4220;42.502;24.188;2023-04-28T08:45:04;95550.03;;;14.38;44.44
8366;BME280;4220;42.502;24.188;2023-04-28T08:47:33;95556.56;;;14.82;43.01
8366;BME280;4220;42.502;24.188;2023-04-28T08:50:02;95554.03;;;14.76;42.74
8366;BME280;4220;42.502;24.188;2023-04-28T08:52:31;95552.94;;;15.00;42.74
8366;BME280;4220;42.502;24.188;2023-04-28T08:54:59;95558.66;;;15.20;41.76
8366;BME280;4220;42.502;24.188;2023-04-28T08:57:31;95541.66;;;15.26;42.48
8366;BME280;4220;42.502;24.188;2023-04-28T09:00:00;95515.56;;;15.17;41.96
8366;BME280;4220;42.502;24.188;2023-04-28T09:02:28;95518.00;;;14.90;43.24
8366;BME280;4220;42.502;24.188;2023-04-28T09:04:55;95515.28;;;14.73;42.60
8366;BME280;4220;42.502;24.188;2023-04-28T09:07:22;95533.63;;;14.58;42.14
8366;BME280;4220;42.502;24.188;2023-04-28T09:10:17;95540.53;;;14.82;41.52
8366;BME280;4220;42.502;24.188;2023-04-28T09:12:44;95545.81;;;14.66;42.18
8366;BME280;4220;42.502;24.188;2023-04-28T09:15:24;95538.97;;;14.23;43.27
8366;BME280;4220;42.502;24.188;2023-04-28T09:17:51;95546.66;;;14.20;42.93
8366;BME280;4220;42.502;24.188;2023-04-28T09:20:19;95522.84;;;13.84;42.76
8366;BME280;4220;42.502;24.188;2023-04-28T09:22:47;95534.84;;;13.51;43.30
8366;BME280;4220;42.502;24.188;2023-04-28T09:25:16;95532.25;;;13.74;43.19
8366;BME280;4220;42.502;24.188;2023-04-28T09:27:43;95535.84;;;13.92;42.38
8366;BME280;4220;42.502;24.188;2023-04-28T09:30:11;95526.34;;;13.96;41.83
8366;BME280;4220;42.502;24.188;2023-04-28T09:32:37;95528.19;;;14.53;41.65
8366;BME280;4220;42.502;24.188;2023-04-28T09:35:05;95533.47;;;15.16;39.94
8366;BME280;4220;42.502;24.188;2023-04-28T09:37:33;95535.06;;;15.90;38.76
8366;BME280;4220;42.502;24.188;2023-04-28T09:40:05;95511.94;;;16.01;37.03
8366;BME280;4220;42.502;24.188;2023-04-28T09:42:36;95520.81;;;16.40;36.75
8366;BME280;4220;42.502;24.188;2023-04-28T09:45:04;95519.75;;;16.57;36.30
8366;BME280;4220;42.502;24.188;2023-04-28T09:47:32;95519.69;;;16.95;35.09
8366;BME280;4220;42.502;24.188;2023-04-28T09:50:01;95516.06;;;17.07;35.11
8366;BME280;4220;42.502;24.188;2023-04-28T09:52:28;95518.59;;;17.45;35.21
8366;BME280;4220;42.502;24.188;2023-04-28T09:54:56;95522.28;;;17.60;33.61
8366;BME280;4220;42.502;24.188;2023-04-28T09:57:23;95492.59;;;17.45;34.01
8366;BME280;4220;42.502;24.188;2023-04-28T09:59:52;95508.91;;;17.39;34.15
8366;BME280;4220;42.502;24.188;2023-04-28T10:02:20;95497.88;;;17.35;34.58
8366;BME280;4220;42.502;24.188;2023-04-28T10:04:48;95508.25;;;17.27;33.96
8366;BME280;4220;42.502;24.188;2023-04-28T10:07:17;95490.09;;;16.25;33.96
8366;BME280;4220;42.502;24.188;2023-04-28T10:09:45;95504.16;;;15.83;35.70
8366;BME280;4220;42.502;24.188;2023-04-28T10:12:14;95486.28;;;15.50;36.42
8366;BME280;4220;42.502;24.188;2023-04-28T10:14:41;95492.78;;;15.87;36.08
8366;BME280;4220;42.502;24.188;2023-04-28T10:17:12;95481.00;;;15.88;37.18
8366;BME280;4220;42.502;24.188;2023-04-28T10:19:39;95482.59;;;16.06;37.47
8366;BME280;4220;42.502;24.188;2023-04-28T10:22:20;95482.81;;;16.21;37.80
8366;BME280;4220;42.502;24.188;2023-04-28T10:25:15;95487.88;;;16.39;36.75
8366;BME280;4220;42.502;24.188;2023-04-28T10:27:48;95483.75;;;16.70;35.47
8366;BME280;4220;42.502;24.188;2023-04-28T10:30:17;95488.41;;;17.01;35.65
8366;BME280;4220;42.502;24.188;2023-04-28T10:32:45;95476.13;;;17.05;35.01
8366;BME280;4220;42.502;24.188;2023-04-28T10:35:39;95474.16;;;16.74;36.30
8366;BME280;4220;42.502;24.188;2023-04-28T10:38:08;95472.78;;;16.11;34.84
8366;BME280;4220;42.502;24.188;2023-04-28T10:40:38;95471.59;;;15.69;36.22
8366;BME280;4220;42.502;24.188;2023-04-28T10:43:06;95471.16;;;15.44;36.82
8366;BME280;4220;42.502;24.188;2023-04-28T10:45:58;95452.38;;;14.94;37.81
8366;BME280;4220;42.502;24.188;2023-04-28T10:48:55;95456.94;;;14.82;38.88
8366;BME280;4220;42.502;24.188;2023-04-28T10:51:23;95455.19;;;14.87;39.20
8366;BME280;4220;42.502;24.188;2023-04-28T10:54:14;95465.00;;;14.70;38.84
8366;BME280;4220;42.502;24.188;2023-04-28T10:59:50;95414.75;;;14.67;38.50
8366;BME280;4220;42.502;24.188;2023-04-28T11:02:39;95465.78;;;15.11;38.48
8366;BME280;4220;42.502;24.188;2023-04-28T11:05:14;95449.84;;;15.16;38.52
8366;BME280;4220;42.502;24.188;2023-04-28T11:11:15;95436.31;;;15.05;38.83
8366;BME280;4220;42.502;24.188;2023-04-28T11:13:42;95452.44;;;15.27;38.08
8366;BME280;4220;42.502;24.188;2023-04-28T11:16:13;95442.22;;;15.52;38.84
8366;BME280;4220;42.502;24.188;2023-04-28T11:18:51;95429.91;;;16.06;36.83
8366;BME280;4220;42.502;24.188;2023-04-28T11:21:21;95457.66;;;16.22;35.95
8366;BME280;4220;42.502;24.188;2023-04-28T11:23:48;95427.31;;;15.95;36.39
8366;BME280;4220;42.502;24.188;2023-04-28T11:26:15;95433.09;;;15.70;35.71
8366;BME280;4220;42.502;24.188;2023-04-28T11:28:50;95427.66;;;15.98;37.27
8366;BME280;4220;42.502;24.188;2023-04-28T11:31:19;95420.03;;;16.07;35.52
8366;BME280;4220;42.502;24.188;2023-04-28T11:33:55;95423.69;;;16.22;35.38
8366;BME280;4220;42.502;24.188;2023-04-28T11:36:25;95435.09;;;16.34;35.51
8366;BME280;4220;42.502;24.188;2023-04-28T11:38:54;95421.97;;;16.55;34.66
8366;BME280;4220;42.502;24.188;2023-04-28T11:41:21;95427.56;;;16.75;34.26
8366;BME280;4220;42.502;24.188;2023-04-28T11:43:49;95429.66;;;16.51;33.74
8366;BME280;4220;42.502;24.188;2023-04-28T11:46:17;95435.22;;;16.45;32.67
8366;BME280;4220;42.502;24.188;2023-04-28T11:48:44;95420.09;;;16.33;32.86
8366;BME280;4220;42.502;24.188;2023-04-28T11:51:31;95427.38;;;16.81;32.91
8366;BME280;4220;42.502;24.188;2023-04-28T11:53:58;95391.19;;;16.79;33.01
8366;BME280;4220;42.502;24.188;2023-04-28T11:56:25;95414.19;;;17.02;32.89
8366;BME280;4220;42.502;24.188;2023-04-28T11:59:02;95412.59;;;17.59;32.69
8366;BME280;4220;42.502;24.188;2023-04-28T12:01:30;95417.88;;;18.33;31.48
8366;BME280;4220;42.502;24.188;2023-04-28T12:03:57;95423.78;;;19.02;31.17
8366;BME280;4220;42.502;24.188;2023-04-28T12:06:24;95389.16;;;19.66;29.68
8366;BME280;4220;42.502;24.188;2023-04-28T12:08:53;95420.78;;;20.49;28.34
8366;BME280;4220;42.502;24.188;2023-04-28T12:11:21;95411.25;;;20.72;27.30
8366;BME280;4220;42.502;24.188;2023-04-28T12:14:05;95411.59;;;20.55;25.64
8366;BME280;4220;42.502;24.188;2023-04-28T12:16:39;95408.22;;;19.34;25.98
8366;BME280;4220;42.502;24.188;2023-04-28T12:19:09;95401.09;;;18.57;26.03
8366;BME280;4220;42.502;24.188;2023-04-28T12:21:37;95354.41;;;18.16;28.16
8366;BME280;4220;42.502;24.188;2023-04-28T12:24:19;95340.16;;;18.11;27.63
8366;BME280;4220;42.502;24.188;2023-04-28T12:26:47;95390.38;;;18.62;27.87
8366;BME280;4220;42.502;24.188;2023-04-28T12:29:35;95379.13;;;18.90;27.33
8366;BME280;4220;42.502;24.188;2023-04-28T12:32:06;95385.63;;;19.35;27.05
8366;BME280;4220;42.502;24.188;2023-04-28T12:34:34;95380.81;;;19.57;26.93
8366;BME280;4220;42.502;24.188;2023-04-28T12:37:01;95383.66;;;20.21;26.65
8366;BME280;4220;42.502;24.188;2023-04-28T12:39:32;95375.56;;;20.95;25.93
8366;BME280;4220;42.502;24.188;2023-04-28T12:41:59;95382.13;;;21.62;25.15
8366;BME280;4220;42.502;24.188;2023-04-28T12:44:27;95382.47;;;22.36;24.70
8366;BME280;4220;42.502;24.188;2023-04-28T12:47:00;95381.00;;;23.10;23.97
8366;BME280;4220;42.502;24.188;2023-04-28T12:49:27;95379.41;;;23.46;23.22
8366;BME280;4220;42.502;24.188;2023-04-28T12:51:54;95382.75;;;23.57;23.35
8366;BME280;4220;42.502;24.188;2023-04-28T12:54:21;95387.03;;;23.76;22.77
8366;BME280;4220;42.502;24.188;2023-04-28T12:56:49;95378.69;;;24.05;22.36
8366;BME280;4220;42.502;24.188;2023-04-28T12:59:16;95334.69;;;23.94;22.41
8366;BME280;4220;42.502;24.188;2023-04-28T13:01:43;95378.00;;;24.13;22.16
8366;BME280;4220;42.502;24.188;2023-04-28T13:04:09;95364.25;;;22.89;22.86
8366;BME280;4220;42.502;24.188;2023-04-28T13:06:37;95360.47;;;20.89;24.78
8366;BME280;4220;42.502;24.188;2023-04-28T13:09:04;95348.81;;;20.55;25.64
8366;BME280;4220;42.502;24.188;2023-04-28T13:11:31;95352.91;;;20.91;25.53
8366;BME280;4220;42.502;24.188;2023-04-28T13:13:59;95357.63;;;19.96;26.60
8366;BME280;4220;42.502;24.188;2023-04-28T13:16:27;95357.94;;;19.29;27.06
8366;BME280;4220;42.502;24.188;2023-04-28T13:18:55;95344.72;;;18.87;27.44
8366;BME280;4220;42.502;24.188;2023-04-28T13:21:22;95318.69;;;19.03;27.43
8366;BME280;4220;42.502;24.188;2023-04-28T13:23:51;95349.88;;;19.29;27.32
8366;BME280;4220;42.502;24.188;2023-04-28T13:26:18;95350.41;;;19.62;27.03
8366;BME280;4220;42.502;24.188;2023-04-28T13:28:45;95349.63;;;19.26;27.08
8366;BME280;4220;42.502;24.188;2023-04-28T13:31:14;95325.69;;;19.04;27.60